TimeMDT,TemperatureF,Dew PointF,Humidity,Sea Level PressureIn,VisibilityMPH,Wind Direction,Wind SpeedMPH,Gust SpeedMPH,PrecipitationIn,Events,Conditions,WindDirDegrees,DateUTC
12:53 AM,46.9,32.0,56,30.10,10.0,South,11.5,-,N/A,,Clear,190,2013-03-30 06:53:00
1:53 AM,46.0,32.0,58,30.10,10.0,South,11.5,-,N/A,,Clear,180,2013-03-30 07:53:00
2:53 AM,45.0,30.9,58,30.10,10.0,South,11.5,-,N/A,,Clear,180,2013-03-30 08:53:00
3:53 AM,44.1,30.9,60,30.11,10.0,South,13.8,-,N/A,,Clear,190,2013-03-30 09:53:00
4:53 AM,43.0,30.9,62,30.11,10.0,South,12.7,-,N/A,,Clear,180,2013-03-30 10:53:00
5:53 AM,43.0,30.9,62,30.12,10.0,South,13.8,-,N/A,,Clear,190,2013-03-30 11:53:00
6:53 AM,43.0,30.9,62,30.12,10.0,South,13.8,-,N/A,,Clear,190,2013-03-30 12:53:00
7:53 AM,42.1,30.9,65,30.16,10.0,South,12.7,-,N/A,,Clear,190,2013-03-30 13:53:00
8:53 AM,50.0,34.0,54,30.17,10.0,SSW,8.1,-,N/A,,Clear,200,2013-03-30 14:53:00
9:53 AM,55.0,35.1,47,30.18,10.0,West,10.4,-,N/A,,Clear,260,2013-03-30 15:53:00
10:53 AM,57.9,36.0,44,30.17,10.0,WNW,9.2,-,N/A,,Clear,290,2013-03-30 16:53:00
11:53 AM,61.0,36.0,39,30.16,10.0,West,10.4,-,N/A,,Clear,260,2013-03-30 17:53:00
12:53 PM,63.0,35.1,35,30.14,10.0,West,11.5,16.1,N/A,,Clear,270,2013-03-30 18:53:00
1:53 PM,64.0,34.0,33,30.13,10.0,WNW,10.4,-,N/A,,Clear,300,2013-03-30 19:53:00
2:53 PM,64.9,33.1,31,30.11,10.0,West,10.4,-,N/A,,Clear,260,2013-03-30 20:53:00
3:53 PM,64.9,30.0,27,30.09,10.0,WNW,8.1,-,N/A,,Clear,290,2013-03-30 21:53:00
4:53 PM,64.9,26.1,23,30.08,10.0,SW,5.8,-,N/A,,Clear,230,2013-03-30 22:53:00
5:53 PM,64.9,28.0,25,30.06,10.0,WSW,4.6,-,N/A,,Clear,250,2013-03-30 23:53:00
6:53 PM,64.0,26.1,24,30.06,10.0,WNW,5.8,-,N/A,,Clear,300,2013-03-31 00:53:00
7:53 PM,59.0,27.0,29,30.06,10.0,NNW,3.5,-,N/A,,Clear,330,2013-03-31 01:53:00
8:53 PM,43.0,26.1,51,30.09,10.0,Calm,Calm,-,N/A,,Clear,0,2013-03-31 02:53:00
9:53 PM,41.0,27.0,57,30.09,10.0,Calm,Calm,-,N/A,,Clear,0,2013-03-31 03:53:00
10:53 PM,44.1,28.9,55,30.08,10.0,SSE,8.1,-,N/A,,Clear,160,2013-03-31 04:53:00
11:53 PM,41.0,28.9,62,30.06,10.0,South,9.2,-,N/A,,Clear,180,2013-03-31 05:53:00